Time;durP1;ratioP1;P1;durP2;ratioP2;P2;SDS_P1;SDS_P2;PMS_P1;PMS_P2;Temp;Humidity;BMP_temperature;BMP_pressure;BME280_temperature;BME280_humidity;BME280_pressure;Samples;Min_cycle;Max_cycle;Signal;HPM_P1;HPM_P2
2021/12/03 00:00:40;;;;;;;13.43;9.40;;;;;;;;;;5057419;28;20493;-64
2021/12/03 00:03:07;;;;;;;16.93;9.93;;;;;;;;;;5057233;28;20421;-64
2021/12/03 00:05:33;;;;;;;15.23;8.73;;;;;;;;;;5057373;28;20905;-64
2021/12/03 00:08:00;;;;;;;18.03;10.70;;;;;;;;;;5057202;28;20469;-65
2021/12/03 00:10:26;;;;;;;19.53;9.90;;;;;;;;;;5056947;28;20394;-64
2021/12/03 00:12:53;;;;;;;15.00;11.10;;;;;;;;;;5057150;28;20413;-64
2021/12/03 00:15:19;;;;;;;15.87;9.50;;;;;;;;;;5056871;28;20424;-64
2021/12/03 00:17:46;;;;;;;17.90;10.53;;;;;;;;;;5057346;28;20434;-64
2021/12/03 00:20:14;;;;;;;17.67;11.60;;;;;;;;;;5056857;28;20921;-65
2021/12/03 00:22:41;;;;;;;17.80;10.77;;;;;;;;;;5056974;28;20425;-64
2021/12/03 00:25:07;;;;;;;12.07;8.73;;;;;;;;;;5057116;28;20452;-64
2021/12/03 00:27:33;;;;;;;14.47;10.40;;;;;;;;;;5055968;28;20465;-64
2021/12/03 00:29:59;;;;;;;12.97;9.10;;;;;;;;;;5056697;28;20877;-65
2021/12/03 00:32:25;;;;;;;16.07;9.93;;;;;;;;;;5056387;28;20412;-64
2021/12/03 00:34:51;;;;;;;15.60;8.87;;;;;;;;;;5056518;28;20413;-64
2021/12/03 00:37:17;;;;;;;14.80;9.23;;;;;;;;;;5056201;28;20453;-64
2021/12/03 00:39:43;;;;;;;15.90;9.20;;;;;;;;;;5056484;28;20440;-64
2021/12/03 00:42:14;;;;;;;16.40;9.87;;;;;;;;;;5056205;28;20463;-64
2021/12/03 00:44:40;;;;;;;13.43;9.13;;;;;;;;;;5056136;28;20782;-64
2021/12/03 00:47:06;;;;;;;14.23;9.30;;;;;;;;;;5056654;28;20869;-64
2021/12/03 00:49:32;;;;;;;14.50;10.17;;;;;;;;;;5056756;28;20402;-64
2021/12/03 00:51:58;;;;;;;15.70;10.40;;;;;;;;;;5056751;28;20500;-64
2021/12/03 00:54:24;;;;;;;17.57;10.97;;;;;;;;;;5056355;28;20409;-64
2021/12/03 00:56:50;;;;;;;12.80;9.40;;;;;;;;;;5056362;28;20434;-64
2021/12/03 00:59:16;;;;;;;17.30;11.23;;;;;;;;;;5059197;28;20402;-64
2021/12/03 01:01:43;;;;;;;13.20;9.47;;;;;;;;;;5060644;28;20421;-65
2021/12/03 01:04:09;;;;;;;15.70;10.47;;;;;;;;;;5061048;28;20489;-65
2021/12/03 01:06:35;;;;;;;14.90;10.67;;;;;;;;;;5060363;28;21029;-65
2021/12/03 01:09:01;;;;;;;16.63;9.37;;;;;;;;;;5060130;28;20462;-65
2021/12/03 01:11:27;;;;;;;14.70;9.17;;;;;;;;;;5061090;28;20405;-65
2021/12/03 01:13:57;;;;;;;13.37;9.73;;;;;;;;;;5060523;28;20950;-65
2021/12/03 01:16:23;;;;;;;16.17;10.30;;;;;;;;;;5060869;28;20826;-65
2021/12/03 01:18:49;;;;;;;14.90;9.97;;;;;;;;;;5060430;28;20405;-64
2021/12/03 01:21:15;;;;;;;14.30;10.03;;;;;;;;;;5060449;28;20434;-66
2021/12/03 01:23:41;;;;;;;13.87;8.90;;;;;;;;;;5060452;28;20414;-65
2021/12/03 01:26:08;;;;;;;13.93;9.10;;;;;;;;;;5060643;28;20838;-64
2021/12/03 01:28:34;;;;;;;16.33;9.97;;;;;;;;;;5060471;28;20442;-63
2021/12/03 01:31:00;;;;;;;16.73;10.43;;;;;;;;;;5059895;28;20398;-64
2021/12/03 01:33:26;;;;;;;16.20;9.70;;;;;;;;;;5060348;28;20417;-65
2021/12/03 01:35:52;;;;;;;14.30;9.70;;;;;;;;;;5059683;28;20789;-65
2021/12/03 01:38:18;;;;;;;19.23;10.80;;;;;;;;;;5060403;28;20445;-64
2021/12/03 01:40:45;;;;;;;15.23;9.50;;;;;;;;;;5056613;28;20405;-65
2021/12/03 01:43:15;;;;;;;14.27;10.30;;;;;;;;;;5055728;28;20452;-64
2021/12/03 01:45:41;;;;;;;18.40;11.20;;;;;;;;;;5055782;28;20433;-63
2021/12/03 01:48:07;;;;;;;16.73;10.00;;;;;;;;;;5055405;28;20518;-64
2021/12/03 01:50:36;;;;;;;14.30;9.10;;;;;;;;;;5055904;28;20417;-64
2021/12/03 01:53:03;;;;;;;11.50;9.10;;;;;;;;;;5056035;28;20417;-63
2021/12/03 01:55:29;;;;;;;14.90;9.93;;;;;;;;;;5055794;28;20452;-63
2021/12/03 01:57:55;;;;;;;16.10;11.00;;;;;;;;;;5055794;28;20961;-64
2021/12/03 02:00:29;;;;;;;20.30;10.53;;;;;;;;;;5055640;28;20505;-64
2021/12/03 02:02:55;;;;;;;14.80;9.90;;;;;;;;;;5055639;28;20414;-63
2021/12/03 02:05:21;;;;;;;15.17;10.80;;;;;;;;;;5055840;28;20926;-62
2021/12/03 02:07:47;;;;;;;21.20;10.10;;;;;;;;;;5055447;28;20472;-63
2021/12/03 02:10:14;;;;;;;13.83;10.20;;;;;;;;;;5055256;28;20497;-63
2021/12/03 02:12:41;;;;;;;15.50;11.03;;;;;;;;;;5055676;28;20825;-65
2021/12/03 02:15:07;;;;;;;18.20;11.77;;;;;;;;;;5055371;28;20399;-65
2021/12/03 02:17:33;;;;;;;14.57;10.80;;;;;;;;;;5055245;28;20434;-65
2021/12/03 02:19:59;;;;;;;17.97;10.77;;;;;;;;;;5046011;28;20433;-66
2021/12/03 02:22:25;;;;;;;14.50;11.00;;;;;;;;;;5049870;28;20422;-64
2021/12/03 02:24:52;;;;;;;20.57;11.10;;;;;;;;;;5055093;28;20520;-65
2021/12/03 02:27:18;;;;;;;19.37;11.13;;;;;;;;;;5054784;28;20461;-66
2021/12/03 02:29:44;;;;;;;14.53;10.53;;;;;;;;;;5054778;28;20398;-64
2021/12/03 02:32:10;;;;;;;15.40;11.20;;;;;;;;;;5054934;28;20401;-65
2021/12/03 02:34:36;;;;;;;13.67;9.33;;;;;;;;;;5054924;28;20402;-65
2021/12/03 02:37:03;;;;;;;16.07;10.50;;;;;;;;;;5054982;28;20414;-65
2021/12/03 02:39:29;;;;;;;16.27;10.90;;;;;;;;;;5054276;28;20510;-65
2021/12/03 02:41:55;;;;;;;15.83;10.30;;;;;;;;;;5054606;28;20398;-66
2021/12/03 02:44:21;;;;;;;17.17;10.23;;;;;;;;;;5054773;28;20402;-63
2021/12/03 02:46:47;;;;;;;14.87;9.30;;;;;;;;;;5053464;28;20465;-64
2021/12/03 02:49:15;;;;;;;15.60;9.60;;;;;;;;;;5054458;28;20425;-63
2021/12/03 02:51:42;;;;;;;13.80;10.37;;;;;;;;;;5055953;28;20426;-65
2021/12/03 02:54:08;;;;;;;15.70;9.80;;;;;;;;;;5055742;28;20417;-65
2021/12/03 02:56:34;;;;;;;15.10;9.40;;;;;;;;;;5055601;28;20425;-65
2021/12/03 02:59:00;;;;;;;13.60;8.27;;;;;;;;;;5055154;28;20421;-65
2021/12/03 03:01:26;;;;;;;12.40;8.53;;;;;;;;;;5050973;28;20426;-65
2021/12/03 03:03:52;;;;;;;12.50;9.17;;;;;;;;;;5054574;28;20407;-65
2021/12/03 03:06:18;;;;;;;13.47;7.93;;;;;;;;;;5054374;28;20402;-64
2021/12/03 03:08:45;;;;;;;13.10;9.83;;;;;;;;;;5054197;28;20406;-66
2021/12/03 03:11:11;;;;;;;15.03;10.17;;;;;;;;;;5054449;28;20401;-65
2021/12/03 03:13:37;;;;;;;14.93;9.10;;;;;;;;;;5054672;28;20405;-65
2021/12/03 03:16:04;;;;;;;13.67;9.10;;;;;;;;;;5054366;28;20795;-64
2021/12/03 03:18:30;;;;;;;13.10;10.20;;;;;;;;;;5054279;28;20426;-66
2021/12/03 03:21:00;;;;;;;15.03;9.30;;;;;;;;;;5053544;28;20463;-64
2021/12/03 03:23:27;;;;;;;12.73;9.73;;;;;;;;;;5054471;28;20397;-63
2021/12/03 03:25:53;;;;;;;16.37;9.03;;;;;;;;;;5054391;28;20402;-64
2021/12/03 03:28:20;;;;;;;10.50;8.07;;;;;;;;;;5053756;28;20932;-63
2021/12/03 03:30:47;;;;;;;12.33;8.90;;;;;;;;;;5053794;28;20414;-64
2021/12/03 03:33:14;;;;;;;17.43;9.33;;;;;;;;;;5054037;28;20976;-64
2021/12/03 03:35:40;;;;;;;13.63;10.13;;;;;;;;;;5054210;28;20772;-65
2021/12/03 03:38:06;;;;;;;13.40;8.67;;;;;;;;;;5053539;28;20475;-65
2021/12/03 03:40:33;;;;;;;11.20;8.47;;;;;;;;;;5055374;28;20414;-64
2021/12/03 03:43:00;;;;;;;17.77;8.57;;;;;;;;;;5057868;28;20901;-65
2021/12/03 03:45:26;;;;;;;11.23;7.33;;;;;;;;;;5058087;28;20744;-63
2021/12/03 03:47:53;;;;;;;10.20;7.10;;;;;;;;;;5056660;28;20995;-64
2021/12/03 03:50:20;;;;;;;11.63;7.77;;;;;;;;;;5057680;28;20413;-65
2021/12/03 03:52:47;;;;;;;13.87;9.13;;;;;;;;;;5052145;28;20426;-64
2021/12/03 03:55:14;;;;;;;13.63;8.90;;;;;;;;;;5049940;28;20477;-64
2021/12/03 03:57:41;;;;;;;12.57;9.13;;;;;;;;;;5057467;28;20421;-64
2021/12/03 04:00:09;;;;;;;10.83;8.30;;;;;;;;;;5056453;28;20758;-64
2021/12/03 04:02:35;;;;;;;16.10;8.50;;;;;;;;;;5058023;28;20406;-64
2021/12/03 04:05:01;;;;;;;10.60;8.87;;;;;;;;;;5057939;28;20406;-64
2021/12/03 04:07:27;;;;;;;14.87;8.50;;;;;;;;;;5057403;28;20458;-64
2021/12/03 04:09:53;;;;;;;12.03;8.93;;;;;;;;;;5057083;28;20401;-64
2021/12/03 04:12:19;;;;;;;10.63;7.50;;;;;;;;;;5057321;28;20453;-64
2021/12/03 04:14:45;;;;;;;12.53;8.60;;;;;;;;;;5058099;28;20402;-64
2021/12/03 04:17:11;;;;;;;17.57;8.97;;;;;;;;;;5057195;28;20547;-64
2021/12/03 04:19:37;;;;;;;13.70;9.30;;;;;;;;;;5056860;28;20406;-64
2021/12/03 04:22:03;;;;;;;12.70;9.03;;;;;;;;;;5056586;28;20410;-64
2021/12/03 04:24:29;;;;;;;10.50;8.80;;;;;;;;;;5056612;28;20958;-64
2021/12/03 04:26:55;;;;;;;10.63;7.80;;;;;;;;;;5056896;28;20944;-64
2021/12/03 04:29:21;;;;;;;10.07;7.83;;;;;;;;;;5057640;28;20398;-64
2021/12/03 04:31:48;;;;;;;11.57;9.13;;;;;;;;;;5056723;28;20402;-64
2021/12/03 04:34:14;;;;;;;15.43;9.17;;;;;;;;;;5056901;28;20410;-65
2021/12/03 04:36:40;;;;;;;13.63;9.07;;;;;;;;;;5061354;23;20467;-79
2021/12/03 04:39:06;;;;;;;13.53;9.73;;;;;;;;;;5038651;28;20494;-79
2021/12/03 04:41:32;;;;;;;11.87;9.30;;;;;;;;;;5027587;28;20804;-79
2021/12/03 04:43:58;;;;;;;14.13;9.03;;;;;;;;;;5024395;28;20821;-78
2021/12/03 04:46:24;;;;;;;13.50;8.93;;;;;;;;;;5018475;28;20423;-78
2021/12/03 04:48:50;;;;;;;12.47;8.50;;;;;;;;;;5027427;28;20466;-78
2021/12/03 04:51:16;;;;;;;13.67;9.80;;;;;;;;;;5020472;28;20448;-78
2021/12/03 04:53:42;;;;;;;10.77;8.20;;;;;;;;;;5039614;28;20453;-79
2021/12/03 04:56:08;;;;;;;11.10;7.30;;;;;;;;;;5040216;28;20487;-80
2021/12/03 04:58:35;;;;;;;11.93;7.90;;;;;;;;;;5023319;28;20513;-78
2021/12/03 05:01:01;;;;;;;11.73;7.97;;;;;;;;;;5039868;28;20477;-80
2021/12/03 05:03:29;;;;;;;13.73;8.27;;;;;;;;;;5038308;28;20399;-82
2021/12/03 05:05:58;;;;;;;10.43;8.10;;;;;;;;;;5038769;28;20425;-79
2021/12/03 05:08:25;;;;;;;10.50;7.70;;;;;;;;;;5039080;28;20454;-79
2021/12/03 05:10:51;;;;;;;8.97;6.83;;;;;;;;;;5039863;28;20434;-81
2021/12/03 05:13:21;;;;;;;11.10;7.20;;;;;;;;;;5043957;28;20419;-77
2021/12/03 05:15:47;;;;;;;15.57;7.93;;;;;;;;;;5043571;28;20781;-80
2021/12/03 05:18:15;;;;;;;14.30;8.03;;;;;;;;;;5041697;28;20406;-82
2021/12/03 05:20:41;;;;;;;11.70;7.97;;;;;;;;;;5040790;28;20434;-78
2021/12/03 05:23:08;;;;;;;10.60;7.13;;;;;;;;;;5022891;28;20427;-80
2021/12/03 05:25:34;;;;;;;10.13;8.07;;;;;;;;;;5044869;28;20411;-78
2021/12/03 05:28:01;;;;;;;11.53;7.40;;;;;;;;;;5040139;28;20509;-80
2021/12/03 05:30:27;;;;;;;10.40;7.57;;;;;;;;;;5044403;28;20470;-80
2021/12/03 05:32:54;;;;;;;7.97;6.70;;;;;;;;;;5038826;28;20418;-79
2021/12/03 05:35:20;;;;;;;21.73;9.50;;;;;;;;;;5024317;28;20422;-78
2021/12/03 05:37:46;;;;;;;11.60;7.20;;;;;;;;;;5039200;28;20426;-78
2021/12/03 05:40:13;;;;;;;9.73;7.27;;;;;;;;;;5037840;28;20443;-79
2021/12/03 05:42:39;;;;;;;10.60;7.80;;;;;;;;;;5040265;28;20476;-81
2021/12/03 05:45:06;;;;;;;10.97;6.57;;;;;;;;;;5027798;28;20488;-79
2021/12/03 05:47:32;;;;;;;10.70;8.10;;;;;;;;;;5022829;28;20454;-81
2021/12/03 05:49:58;;;;;;;10.13;8.03;;;;;;;;;;5023608;28;20451;-79
2021/12/03 05:52:24;;;;;;;13.70;9.17;;;;;;;;;;5023109;28;20408;-79
2021/12/03 05:54:51;;;;;;;9.20;7.27;;;;;;;;;;5032214;28;20415;-80
2021/12/03 05:57:17;;;;;;;11.37;7.43;;;;;;;;;;5043232;28;20402;-79
2021/12/03 05:59:43;;;;;;;10.80;9.10;;;;;;;;;;5042185;28;20431;-79
2021/12/03 06:02:09;;;;;;;12.50;7.60;;;;;;;;;;5042466;28;20448;-79
2021/12/03 06:04:35;;;;;;;13.73;9.10;;;;;;;;;;5038411;28;20419;-80
2021/12/03 06:07:01;;;;;;;16.53;9.40;;;;;;;;;;5022829;28;20455;-79
2021/12/03 06:09:27;;;;;;;11.13;7.90;;;;;;;;;;5025413;28;20431;-80
2021/12/03 06:11:53;;;;;;;13.90;8.63;;;;;;;;;;5023299;28;20491;-79
2021/12/03 06:14:19;;;;;;;15.70;10.03;;;;;;;;;;5023482;28;20403;-79
2021/12/03 06:16:45;;;;;;;14.57;8.73;;;;;;;;;;5041083;28;20430;-79
2021/12/03 06:19:11;;;;;;;14.13;8.57;;;;;;;;;;5043880;28;20437;-79
2021/12/03 06:21:37;;;;;;;9.97;7.80;;;;;;;;;;5047025;28;20521;-80
2021/12/03 06:24:03;;;;;;;14.83;9.57;;;;;;;;;;5045320;28;20411;-81
2021/12/03 06:26:29;;;;;;;13.30;9.40;;;;;;;;;;5029827;28;20463;-81
2021/12/03 06:28:56;;;;;;;11.23;8.23;;;;;;;;;;5024813;28;20416;-79
2021/12/03 06:31:22;;;;;;;16.07;9.97;;;;;;;;;;5006727;28;20424;-79
2021/12/03 06:33:48;;;;;;;20.30;9.33;;;;;;;;;;5024493;28;20403;-80
2021/12/03 06:36:14;;;;;;;12.80;9.73;;;;;;;;;;5033439;28;20423;-80
2021/12/03 06:38:40;;;;;;;14.67;9.10;;;;;;;;;;5043768;28;20457;-79
2021/12/03 06:41:06;;;;;;;11.67;8.77;;;;;;;;;;5040158;28;20423;-79
2021/12/03 06:43:33;;;;;;;12.60;9.60;;;;;;;;;;5041047;28;20491;-79
2021/12/03 06:45:59;;;;;;;16.30;10.17;;;;;;;;;;5036746;28;20420;-79
2021/12/03 06:48:25;;;;;;;13.43;9.80;;;;;;;;;;5021722;28;20463;-79
2021/12/03 06:50:52;;;;;;;17.03;8.83;;;;;;;;;;5023427;28;20435;-82
2021/12/03 06:53:22;;;;;;;14.40;9.17;;;;;;;;;;5022876;28;20453;-80
2021/12/03 06:55:52;;;;;;;14.47;11.57;;;;;;;;;;5020349;28;20420;-79
2021/12/03 06:58:20;;;;;;;13.33;9.33;;;;;;;;;;5040830;28;20474;-78
2021/12/03 07:00:47;;;;;;;16.13;10.30;;;;;;;;;;5042688;28;20517;-80
2021/12/03 07:03:13;;;;;;;12.27;9.40;;;;;;;;;;5025643;28;20419;-80
2021/12/03 07:05:40;;;;;;;14.83;9.67;;;;;;;;;;5025712;28;20785;-81
2021/12/03 07:08:06;;;;;;;12.27;8.70;;;;;;;;;;5040752;28;20454;-80
2021/12/03 07:10:32;;;;;;;12.80;9.53;;;;;;;;;;5040546;28;20431;-81
2021/12/03 07:12:59;;;;;;;13.30;9.03;;;;;;;;;;5040840;28;20407;-80
2021/12/03 07:15:25;;;;;;;11.73;8.40;;;;;;;;;;5039635;28;20406;-80
2021/12/03 07:17:51;;;;;;;14.00;10.10;;;;;;;;;;5039922;28;20437;-81
2021/12/03 07:20:21;;;;;;;18.10;9.90;;;;;;;;;;5020332;28;20431;-81
2021/12/03 07:22:47;;;;;;;12.50;9.70;;;;;;;;;;5037706;28;20990;-80
2021/12/03 07:25:14;;;;;;;16.27;10.63;;;;;;;;;;5039070;28;20487;-81
2021/12/03 07:27:40;;;;;;;15.33;10.13;;;;;;;;;;5036855;28;20447;-79
2021/12/03 07:30:08;;;;;;;16.30;10.37;;;;;;;;;;5019408;28;20446;-81
2021/12/03 07:32:35;;;;;;;14.93;10.10;;;;;;;;;;5038197;28;20434;-82
2021/12/03 07:35:02;;;;;;;13.23;9.00;;;;;;;;;;5037586;28;20407;-81
2021/12/03 07:37:28;;;;;;;13.70;9.27;;;;;;;;;;5035183;28;20435;-81
2021/12/03 07:39:54;;;;;;;19.43;11.93;;;;;;;;;;5034643;28;20466;-81
2021/12/03 07:42:20;;;;;;;16.83;10.73;;;;;;;;;;5016995;28;20422;-82
2021/12/03 07:44:46;;;;;;;23.27;14.10;;;;;;;;;;5034510;28;20502;-83
2021/12/03 07:47:12;;;;;;;16.23;10.63;;;;;;;;;;5049469;28;20453;-82
2021/12/03 07:49:40;;;;;;;16.10;10.60;;;;;;;;;;5020436;28;20470;-82
2021/12/03 07:52:07;;;;;;;18.53;10.10;;;;;;;;;;5038875;28;20502;-83
2021/12/03 07:54:33;;;;;;;15.50;10.53;;;;;;;;;;5037830;28;20434;-80
2021/12/03 07:56:59;;;;;;;16.03;10.77;;;;;;;;;;5036680;28;20414;-80
2021/12/03 07:59:25;;;;;;;13.25;10.27;;;;;;;;;;5036156;28;20417;-81
2021/12/03 08:01:51;;;;;;;14.17;8.77;;;;;;;;;;5035869;28;20172;-79
2021/12/03 08:04:17;;;;;;;15.87;10.20;;;;;;;;;;5035511;28;20414;-80
2021/12/03 08:06:45;;;;;;;11.33;8.73;;;;;;;;;;5034858;28;20446;-80
2021/12/03 08:09:11;;;;;;;10.17;7.93;;;;;;;;;;5036043;28;20819;-80
2021/12/03 08:11:38;;;;;;;8.97;6.50;;;;;;;;;;5035951;28;20406;-79
2021/12/03 08:14:05;;;;;;;10.80;7.00;;;;;;;;;;5035358;28;20396;-82
2021/12/03 08:16:31;;;;;;;9.47;7.27;;;;;;;;;;5034983;28;20407;-80
2021/12/03 08:18:57;;;;;;;9.67;7.73;;;;;;;;;;5035648;28;20777;-79
2021/12/03 08:21:23;;;;;;;12.60;7.53;;;;;;;;;;5019096;28;20319;-78
2021/12/03 08:23:49;;;;;;;14.17;8.67;;;;;;;;;;5037179;28;20204;-79
2021/12/03 08:26:16;;;;;;;12.10;7.93;;;;;;;;;;5036313;28;20412;-79
2021/12/03 08:28:42;;;;;;;11.50;9.13;;;;;;;;;;5036410;28;20453;-78
2021/12/03 08:31:14;;;;;;;12.80;9.10;;;;;;;;;;5017943;28;20446;-79
2021/12/03 08:33:40;;;;;;;18.20;9.23;;;;;;;;;;5036016;28;20415;-80
2021/12/03 08:36:06;;;;;;;9.73;7.57;;;;;;;;;;5036135;28;20425;-79
2021/12/03 08:38:32;;;;;;;15.30;8.60;;;;;;;;;;4996313;28;1160143;-80
2021/12/03 08:40:58;;;;;;;10.87;8.53;;;;;;;;;;5037935;28;20287;-79
2021/12/03 08:43:25;;;;;;;16.73;10.00;;;;;;;;;;5035405;28;20431;-80
2021/12/03 08:45:54;;;;;;;11.60;8.93;;;;;;;;;;5036878;28;20962;-80
2021/12/03 08:48:22;;;;;;;15.10;10.30;;;;;;;;;;5034999;28;20512;-81
2021/12/03 08:51:04;;;;;;;12.43;8.73;;;;;;;;;;5035714;28;20441;-80
2021/12/03 08:56:16;;;;;;;15.23;9.20;;;;;;;;;;4991429;28;20445;-82
2021/12/03 08:58:43;;;;;;;13.00;8.83;;;;;;;;;;5035109;28;20873;-80
2021/12/03 09:01:12;;;;;;;12.33;9.27;;;;;;;;;;5057936;23;20581;-69
2021/12/03 09:03:38;;;;;;;12.13;9.33;;;;;;;;;;5050623;28;20424;-70
2021/12/03 09:06:04;;;;;;;12.77;9.97;;;;;;;;;;5051414;28;20398;-69
2021/12/03 09:08:30;;;;;;;15.00;10.03;;;;;;;;;;5051808;28;20514;-70
2021/12/03 09:10:56;;;;;;;12.40;8.63;;;;;;;;;;5051759;28;20469;-70
2021/12/03 09:13:22;;;;;;;13.40;8.87;;;;;;;;;;5031729;28;20439;-67
2021/12/03 09:15:58;;;;;;;10.63;8.70;;;;;;;;;;5043220;28;20441;-67
2021/12/03 09:18:44;;;;;;;12.67;9.77;;;;;;;;;;5031858;28;20434;-69
2021/12/03 09:26:23;;;;;;;13.40;9.43;;;;;;;;;;5047351;28;20919;-68
2021/12/03 09:28:53;;;;;;;12.77;9.43;;;;;;;;;;5036819;28;20437;-66
2021/12/03 09:31:19;;;;;;;8.43;7.47;;;;;;;;;;5043672;28;20420;-67
2021/12/03 09:33:48;;;;;;;12.30;9.13;;;;;;;;;;5051252;28;20852;-66
2021/12/03 09:36:14;;;;;;;9.80;7.73;;;;;;;;;;5055339;28;20996;-68
2021/12/03 09:38:40;;;;;;;10.47;7.57;;;;;;;;;;5052825;28;20817;-68
2021/12/03 09:41:12;;;;;;;13.90;8.47;;;;;;;;;;5055822;28;20417;-66
2021/12/03 09:43:40;;;;;;;9.50;7.80;;;;;;;;;;5055069;28;20401;-66
2021/12/03 09:46:15;;;;;;;12.07;7.60;;;;;;;;;;5055959;28;20389;-67
2021/12/03 09:51:10;;;;;;;8.07;6.13;;;;;;;;;;5043225;28;20398;-66
2021/12/03 09:56:23;;;;;;;9.38;6.30;;;;;;;;;;5040009;28;20483;-65
2021/12/03 10:01:44;;;;;;;8.13;6.03;;;;;;;;;;5053330;28;20516;-63
2021/12/03 10:15:36;;;;;;;9.20;4.23;;;;;;;;;;5055919;28;20975;-63
2021/12/03 10:18:09;;;;;;;6.20;5.23;;;;;;;;;;5045498;28;20438;-64
2021/12/03 10:20:42;;;;;;;9.53;5.70;;;;;;;;;;5055214;28;20428;-63
2021/12/03 10:32:21;;;;;;;6.80;5.63;;;;;;;;;;5035408;28;20391;-63
2021/12/03 10:45:05;;;;;;;7.87;5.20;;;;;;;;;;5054756;28;20366;-63
2021/12/03 12:20:27;;;;;;;5.37;4.30;;;;;;;;;;5049643;28;20425;-62
2021/12/03 12:39:52;;;;;;;5.63;4.53;;;;;;;;;;5050635;28;20405;-62
2021/12/03 13:12:32;;;;;;;7.77;5.07;;;;;;;;;;5043008;28;20438;-66
2021/12/03 13:20:36;;;;;;;6.40;4.47;;;;;;;;;;5038584;28;20927;-67
2021/12/03 13:26:38;;;;;;;7.07;5.30;;;;;;;;;;5037031;28;20410;-66
2021/12/03 14:45:13;;;;;;;6.00;4.30;;;;;;;;;;5055248;28;20402;-66
2021/12/03 14:55:57;;;;;;;10.63;4.63;;;;;;;;;;5055357;28;20431;-66
2021/12/03 14:58:32;;;;;;;6.57;4.67;;;;;;;;;;5054808;28;20831;-69
2021/12/03 15:06:17;;;;;;;5.77;4.23;;;;;;;;;;5054950;28;20908;-66
2021/12/03 15:09:05;;;;;;;7.47;4.50;;;;;;;;;;5054467;28;20472;-66
2021/12/03 15:20:15;;;;;;;6.87;5.20;;;;;;;;;;5033116;28;20410;-67
2021/12/03 15:23:01;;;;;;;8.07;5.47;;;;;;;;;;5055098;28;20437;-69
2021/12/03 15:36:26;;;;;;;6.03;5.10;;;;;;;;;;5046211;28;20402;-68
2021/12/03 15:41:47;;;;;;;7.90;5.10;;;;;;;;;;5054509;28;20497;-69
2021/12/03 15:57:25;;;;;;;8.10;6.20;;;;;;;;;;5053074;28;20963;-68
2021/12/03 16:10:55;;;;;;;8.13;5.00;;;;;;;;;;5048515;28;20409;-63
2021/12/03 16:51:51;;;;;;;9.70;5.67;;;;;;;;;;5052455;28;20401;-67
2021/12/03 16:54:23;;;;;;;6.83;5.30;;;;;;;;;;5030752;28;20414;-66
2021/12/03 16:56:52;;;;;;;6.63;5.23;;;;;;;;;;5033183;28;20498;-66
2021/12/03 16:59:19;;;;;;;11.60;5.80;;;;;;;;;;5047710;28;20417;-66
2021/12/03 17:25:24;;;;;;;9.63;6.20;;;;;;;;;;5027841;28;20441;-65
2021/12/03 17:49:29;;;;;;;10.77;7.73;;;;;;;;;;5038723;28;20437;-63
2021/12/03 17:52:09;;;;;;;11.83;7.13;;;;;;;;;;5036680;28;20399;-62
2021/12/03 17:57:23;;;;;;;14.70;8.40;;;;;;;;;;5026629;28;20415;-61
2021/12/03 17:59:50;;;;;;;18.17;9.23;;;;;;;;;;5023778;28;20443;-59
2021/12/03 18:55:56;;;;;;;20.70;14.83;;;;;;;;;;5017141;28;20428;-61
2021/12/03 18:58:27;;;;;;;16.93;11.43;;;;;;;;;;5017148;28;20410;-60
2021/12/03 19:00:54;;;;;;;15.53;8.90;;;;;;;;;;5016829;28;20458;-61
2021/12/03 19:08:36;;;;;;;13.70;8.07;;;;;;;;;;5016361;28;20811;-61
2021/12/03 19:11:10;;;;;;;16.57;8.30;;;;;;;;;;5016543;28;20498;-61
2021/12/03 19:13:40;;;;;;;21.63;8.27;;;;;;;;;;5016823;28;20763;-61
2021/12/03 19:16:13;;;;;;;15.00;7.57;;;;;;;;;;5015221;28;20447;-62
2021/12/03 19:18:44;;;;;;;11.40;6.97;;;;;;;;;;5016268;28;20874;-61
2021/12/03 19:21:13;;;;;;;11.20;7.77;;;;;;;;;;5016231;28;20439;-62
2021/12/03 19:23:39;;;;;;;27.80;7.80;;;;;;;;;;5016314;28;20404;-60
2021/12/03 19:26:05;;;;;;;11.20;7.90;;;;;;;;;;5016285;28;20779;-61
2021/12/03 19:28:32;;;;;;;12.00;8.43;;;;;;;;;;5016283;28;20804;-60
2021/12/03 19:30:58;;;;;;;13.50;8.67;;;;;;;;;;5016144;28;20419;-61
2021/12/03 19:33:25;;;;;;;10.77;7.27;;;;;;;;;;5016347;28;20460;-62
2021/12/03 19:35:52;;;;;;;10.30;7.53;;;;;;;;;;5015988;28;20404;-61
2021/12/03 19:38:18;;;;;;;10.40;7.27;;;;;;;;;;5015881;28;20429;-60
2021/12/03 19:41:04;;;;;;;14.97;7.57;;;;;;;;;;5015712;28;20944;-60
2021/12/03 19:43:34;;;;;;;10.07;6.67;;;;;;;;;;5014490;28;20430;-61
2021/12/03 19:46:04;;;;;;;12.00;7.90;;;;;;;;;;5016325;28;20443;-59
2021/12/03 19:51:23;;;;;;;12.27;7.10;;;;;;;;;;5000006;28;20447;-62
2021/12/03 19:56:22;;;;;;;11.30;7.67;;;;;;;;;;5015958;28;20381;-61
2021/12/03 19:58:48;;;;;;;12.77;8.47;;;;;;;;;;5015731;28;20461;-61
2021/12/03 20:01:15;;;;;;;18.20;8.60;;;;;;;;;;5015400;28;20436;-62
2021/12/03 20:03:41;;;;;;;16.03;9.30;;;;;;;;;;5014844;28;20837;-61
2021/12/03 20:06:07;;;;;;;9.83;6.97;;;;;;;;;;5015064;28;20773;-59
2021/12/03 20:08:35;;;;;;;11.07;7.37;;;;;;;;;;5015155;28;20447;-60
2021/12/03 20:11:06;;;;;;;14.03;7.77;;;;;;;;;;5014774;28;20491;-59
2021/12/03 20:13:32;;;;;;;9.10;7.43;;;;;;;;;;5015436;28;20384;-60
2021/12/03 20:16:18;;;;;;;12.77;7.63;;;;;;;;;;5015256;28;20471;-60
2021/12/03 20:18:49;;;;;;;9.37;7.03;;;;;;;;;;5014936;28;20396;-60
2021/12/03 20:21:18;;;;;;;10.40;7.10;;;;;;;;;;5014736;28;20960;-58
2021/12/03 20:24:08;;;;;;;7.40;5.80;;;;;;;;;;5015129;28;20470;-60
2021/12/03 20:26:57;;;;;;;10.03;7.00;;;;;;;;;;5014560;28;20435;-60
2021/12/03 20:32:13;;;;;;;8.60;5.43;;;;;;;;;;5014592;28;20398;-62
2021/12/03 20:34:56;;;;;;;7.37;5.87;;;;;;;;;;5014793;28;20495;-61
2021/12/03 20:37:43;;;;;;;6.30;5.00;;;;;;;;;;5013928;28;20471;-62
2021/12/03 20:40:17;;;;;;;6.33;5.17;;;;;;;;;;5013671;28;20455;-63
2021/12/03 21:09:26;;;;;;;8.20;5.40;;;;;;;;;;5013886;28;20391;-60
2021/12/03 21:11:58;;;;;;;15.13;5.63;;;;;;;;;;5014203;28;20411;-59
2021/12/03 21:14:30;;;;;;;9.70;4.80;;;;;;;;;;5014860;28;20392;-60
2021/12/03 21:17:15;;;;;;;9.50;5.47;;;;;;;;;;5018158;28;20464;-62
2021/12/03 21:19:47;;;;;;;8.80;5.90;;;;;;;;;;5017538;28;20416;-62
2021/12/03 21:24:42;;;;;;;9.83;5.33;;;;;;;;;;5018385;28;20414;-60
2021/12/03 21:27:14;;;;;;;10.27;7.77;;;;;;;;;;5017917;28;20562;-62
2021/12/03 21:29:59;;;;;;;8.30;5.30;;;;;;;;;;5018302;28;20926;-62
2021/12/03 21:43:09;;;;;;;8.30;5.40;;;;;;;;;;5017010;28;20383;-61
2021/12/03 21:45:35;;;;;;;10.07;5.20;;;;;;;;;;5015555;28;20415;-58
2021/12/03 21:48:01;;;;;;;6.77;4.90;;;;;;;;;;5016605;28;20447;-62
2021/12/03 21:50:27;;;;;;;6.10;5.00;;;;;;;;;;5016521;28;20447;-62
2021/12/03 21:52:53;;;;;;;8.60;4.87;;;;;;;;;;5016984;28;20391;-62
2021/12/03 21:55:21;;;;;;;7.13;4.67;;;;;;;;;;5017380;28;20406;-59
2021/12/03 21:57:47;;;;;;;9.07;4.80;;;;;;;;;;5017021;28;20498;-62
2021/12/03 22:00:13;;;;;;;8.17;4.80;;;;;;;;;;5017233;28;20431;-62
2021/12/03 22:02:39;;;;;;;5.47;3.97;;;;;;;;;;5017150;28;20407;-62
2021/12/03 22:05:06;;;;;;;6.50;4.77;;;;;;;;;;5016638;28;20471;-62
2021/12/03 22:07:32;;;;;;;5.40;4.67;;;;;;;;;;5016441;28;20827;-61
2021/12/03 22:09:58;;;;;;;5.90;3.97;;;;;;;;;;5016154;28;20430;-62
2021/12/03 22:12:24;;;;;;;5.60;3.87;;;;;;;;;;5016330;28;20398;-61
2021/12/03 22:14:50;;;;;;;5.13;3.80;;;;;;;;;;5016305;28;20486;-56
2021/12/03 22:17:16;;;;;;;5.73;3.50;;;;;;;;;;5016153;28;20484;-58
2021/12/03 22:19:42;;;;;;;6.60;4.40;;;;;;;;;;5016156;28;20451;-58
2021/12/03 22:22:08;;;;;;;6.63;3.57;;;;;;;;;;5016062;28;20750;-60
2021/12/03 22:24:40;;;;;;;6.60;3.90;;;;;;;;;;5016026;28;20396;-60
2021/12/03 22:27:07;;;;;;;8.70;4.83;;;;;;;;;;5015722;28;20971;-59
2021/12/03 22:29:33;;;;;;;8.10;4.17;;;;;;;;;;5016486;28;20423;-60
2021/12/03 22:31:59;;;;;;;5.17;3.47;;;;;;;;;;5016164;28;20404;-61
2021/12/03 22:34:26;;;;;;;6.33;3.83;;;;;;;;;;5014858;28;20458;-58
2021/12/03 22:36:52;;;;;;;5.13;3.27;;;;;;;;;;5016368;28;20432;-60
2021/12/03 22:39:18;;;;;;;5.60;3.73;;;;;;;;;;5016783;28;20427;-62
2021/12/03 22:41:47;;;;;;;6.27;3.87;;;;;;;;;;5017192;28;20392;-61
2021/12/03 22:44:13;;;;;;;7.03;3.80;;;;;;;;;;5017224;28;20400;-62
2021/12/03 22:46:48;;;;;;;6.43;3.80;;;;;;;;;;5016828;28;20909;-62
2021/12/03 22:51:58;;;;;;;4.80;3.33;;;;;;;;;;5016585;28;20396;-57
2021/12/03 22:54:25;;;;;;;6.50;3.60;;;;;;;;;;5016755;28;20782;-60
2021/12/03 22:56:51;;;;;;;6.33;3.80;;;;;;;;;;5016000;28;20909;-60
2021/12/03 22:59:17;;;;;;;4.17;3.23;;;;;;;;;;5015934;28;20407;-60
2021/12/03 23:01:43;;;;;;;6.70;3.70;;;;;;;;;;5015619;28;20477;-58
2021/12/03 23:04:10;;;;;;;3.27;2.73;;;;;;;;;;5015379;28;20406;-59
2021/12/03 23:06:40;;;;;;;4.43;3.67;;;;;;;;;;5015041;28;20400;-62
2021/12/03 23:09:06;;;;;;;6.90;3.27;;;;;;;;;;5015686;28;20547;-61
2021/12/03 23:11:32;;;;;;;6.00;3.47;;;;;;;;;;5015912;28;20487;-61
2021/12/03 23:13:58;;;;;;;4.70;3.47;;;;;;;;;;5015458;28;20780;-57
2021/12/03 23:16:24;;;;;;;8.43;3.50;;;;;;;;;;5015519;28;20411;-61
2021/12/03 23:18:51;;;;;;;6.27;3.37;;;;;;;;;;5015088;28;20454;-61
2021/12/03 23:21:17;;;;;;;5.53;3.70;;;;;;;;;;5014898;28;20427;-60